• Join FlightAware (Why Join?)
  • Login
  • US Flag 
04:08AM EDT


 

Airport Tracker/Info


-or-


 

Live Flight TrackerFlight Track Log ✈ CJC3871 ✈ 30-May-2012 ✈ KIAD - KJST

Flight Track Log - Related Links

Times and Time Zones

All times are in EDT time to prevent confusion due to time zone crossing. See the CJC3871 flight status page for this flight to view local times or setup timezone preferences in your user account.

Time Position Orientation Groundspeed Altitude Reporting Facility
EDT Latitude Longitude Course Direction KTS MPH feet Rate Location/Type
05:41PM 38.9667 -77.5500 310° West 168 193 2,400  Level Potomac TRACON
05:46PM 39.0922 -77.7444 339° North 182 209 6,100 780 Climbing Washington Center
05:47PM 39.1439 -77.7700 351° North 188 216 7,100 960 Climbing Washington Center
05:48PM 39.1917 -77.7794 352° North 193 222 8,100 960 Climbing Washington Center
05:49PM 39.2497 -77.7894 345° North 193 222 9,100 1,020 Climbing Washington Center
05:50PM 39.2994 -77.8069 340° North 198 228 10,200 960 Climbing Washington Center
05:51PM 39.3492 -77.8300 348° North 193 222 11,000 720 Climbing Washington Center
05:52PM 39.4050 -77.8450 357° North 193 222 11,700 480 Climbing Washington Center
05:53PM 39.4611 -77.8494 357° North 193 222 12,000 120 Climbing Washington Center
05:54PM 39.5236 -77.8542 359° North 205 236 12,000 300 Level Washington Center
05:55PM 39.5778 -77.8558 North 205 236 12,600 300 Climbing Washington Center
05:57PM 39.6861 -77.8531 352° North 204 235 13,000 120 Climbing Cleveland Center
05:58PM 39.7450 -77.8642 338° Northwest 210 242 13,000  Level Cleveland Center
05:59PM 39.8083 -77.8967 341° North 215 247 13,000  Level Cleveland Center
06:00PM 39.8650 -77.9217 344° North 220 253 13,000  Level Cleveland Center
06:01PM 39.9239 -77.9436 308° West 225 259 13,000  Level Cleveland Center
06:02PM 39.9608 -78.0044 295° West 210 242 13,000 -300 Level Cleveland Center
06:03PM 39.9853 -78.0739 291° West 207 238 12,400 -1,080 Descending Cleveland Center
06:04PM 40.0078 -78.1492 295° West 215 247 10,900 -1,800 Descending Cleveland Center
06:05PM 40.0322 -78.2186 307° West 215 247 8,900 -1,740 Descending Cleveland Center
06:06PM 40.0647 -78.2744 310° West 203 234 7,500 -1,380 Descending Cleveland Center
06:07PM 40.1011 -78.3303 298° West 198 228 6,200 -1,440 Descending Cleveland Center
06:08PM 40.1297 -78.4000 286° West 221 254 4,800 -900 Descending Cleveland Center
06:09PM 40.1456 -78.4728 288° West 211 243 4,500 -180 Descending Cleveland Center
06:10PM 40.1636 -78.5456 294° West 213 245 4,500  Level Cleveland Center
06:11PM 40.1856 -78.6100 290° West 218 251 4,500 -240 Level Cleveland Center
06:12PM 40.2056 -78.6803 291° West 187 215 4,100 -360 Descending Cleveland Center
06:13PM 40.2233 -78.7422 316° Northwest 182 209 3,800 -300 Descending Cleveland Center
06:14PM 40.2572 -78.7847 325° Northwest 168 193 3,600 -540 Descending Cleveland Center
06:15PM 40.2889 -78.8139 329° Northwest 138 159 2,800 -840 Descending Cleveland Center
06:22PM 40.6520 -79.0984 329° Northwest  Level Estimated